Time;durP1;ratioP1;P1;durP2;ratioP2;P2;SDS_P1;SDS_P2;PMS_P1;PMS_P2;Temp;Humidity;BMP_temperature;BMP_pressure;BME280_temperature;BME280_humidity;BME280_pressure;Samples;Min_cycle;Max_cycle;Signal;HPM_P1;HPM_P2
2022/06/26 00:00:45;;;;;;;8.23;7.03;;;;;;;20.04;62.28;100642.79;1662923;85;25732;-82
2022/06/26 00:03:11;;;;;;;7.80;6.92;;;;;;;19.99;62.47;100644.89;1656939;84;27656;-80
2022/06/26 00:05:38;;;;;;;9.08;7.10;;;;;;;19.95;62.75;100649.17;1682851;83;26395;-81
2022/06/26 00:08:07;;;;;;;8.25;6.90;;;;;;;19.92;62.91;100649.69;1658462;85;25348;-80
2022/06/26 00:10:33;;;;;;;8.23;7.20;;;;;;;19.91;62.94;100646.66;1670747;84;26320;-81
2022/06/26 00:12:59;;;;;;;8.00;7.20;;;;;;;19.86;63.10;100653.39;1659025;84;26144;-81
2022/06/26 00:15:26;;;;;;;7.83;7.10;;;;;;;19.82;63.14;100656.29;1681021;83;27423;-82
2022/06/26 00:17:52;;;;;;;8.35;7.55;;;;;;;19.81;63.37;100659.27;1682898;84;25741;-82
2022/06/26 00:20:21;;;;;;;8.05;7.25;;;;;;;19.78;63.50;100661.13;1693784;83;26414;-82
2022/06/26 00:22:47;;;;;;;10.13;7.42;;;;;;;19.76;63.62;100662.71;1677041;84;26056;-81
2022/06/26 00:25:14;;;;;;;8.33;7.12;;;;;;;19.74;63.55;100658.05;1687090;83;25930;-82
2022/06/26 00:27:40;;;;;;;8.88;7.50;;;;;;;19.73;63.79;100665.94;1674127;84;28238;-82
2022/06/26 00:30:07;;;;;;;10.13;7.20;;;;;;;19.73;63.79;100670.02;1680002;85;25888;-82
2022/06/26 00:32:33;;;;;;;8.08;6.90;;;;;;;19.72;63.84;100666.99;1660846;85;25971;-82
2022/06/26 00:35:00;;;;;;;7.65;6.83;;;;;;;19.70;63.77;100661.51;1671463;85;26951;-82
2022/06/26 00:37:26;;;;;;;9.50;7.17;;;;;;;19.67;64.01;100667.45;1671790;84;25876;-82
2022/06/26 00:39:52;;;;;;;8.50;7.47;;;;;;;19.64;64.02;100674.19;1671466;85;27842;-82
2022/06/26 00:42:19;;;;;;;9.70;7.42;;;;;;;19.61;64.22;100672.51;1657285;85;26054;-81
2022/06/26 00:44:45;;;;;;;9.13;7.25;;;;;;;19.58;64.43;100675.17;1669506;84;25760;-82
2022/06/26 00:47:11;;;;;;;9.05;7.60;;;;;;;19.54;64.30;100674.02;1683203;85;26877;-82
2022/06/26 00:49:38;;;;;;;8.38;7.55;;;;;;;19.52;64.44;100673.44;1670218;85;25829;-81
2022/06/26 00:52:04;;;;;;;8.73;7.83;;;;;;;19.49;64.67;100675.79;1670875;84;28084;-80
2022/06/26 00:54:31;;;;;;;9.20;7.30;;;;;;;19.46;64.72;100667.59;1660793;82;25861;-81
2022/06/26 00:56:59;;;;;;;9.80;7.35;;;;;;;19.45;64.82;100673.27;1665375;85;25704;-81
2022/06/26 00:59:28;;;;;;;10.78;8.28;;;;;;;19.42;64.91;100674.58;1682441;84;26082;-82
2022/06/26 01:01:54;;;;;;;12.10;8.85;;;;;;;19.37;64.97;100679.10;1687912;83;26307;-81
2022/06/26 01:04:21;;;;;;;7.87;7.20;;;;;;;19.34;65.22;100678.18;1675103;83;27461;-80
2022/06/26 01:06:49;;;;;;;10.05;7.62;;;;;;;19.32;65.37;100684.39;1677709;84;25765;-81
2022/06/26 01:09:15;;;;;;;8.98;8.15;;;;;;;19.27;65.58;100687.83;1670109;85;25368;-81
2022/06/26 01:11:43;;;;;;;9.13;7.75;;;;;;;19.21;65.62;100688.80;1659023;85;26086;-82
2022/06/26 01:14:12;;;;;;;9.13;8.23;;;;;;;19.14;65.65;100681.31;1684175;82;25918;-82
2022/06/26 01:16:40;;;;;;;7.97;7.20;;;;;;;19.08;66.03;100681.75;1674171;84;26997;-82
2022/06/26 01:19:08;;;;;;;10.32;7.80;;;;;;;19.02;66.08;100685.44;1648032;85;25840;-83
2022/06/26 01:21:36;;;;;;;9.70;8.33;;;;;;;18.99;66.37;100694.59;1663595;85;25995;-82
2022/06/26 01:24:04;;;;;;;8.28;7.45;;;;;;;18.94;66.53;100692.59;1673317;84;26139;-82
2022/06/26 01:26:32;;;;;;;9.78;7.80;;;;;;;18.94;66.67;100688.53;1664111;85;25909;-82
2022/06/26 01:28:58;;;;;;;10.25;7.90;;;;;;;18.94;66.71;100694.48;1664788;85;28322;-82
2022/06/26 01:31:24;;;;;;;11.15;8.18;;;;;;;18.92;66.81;100689.83;1665725;85;26010;-82
2022/06/26 01:33:53;;;;;;;9.18;8.18;;;;;;;18.90;66.91;100694.67;1675035;83;25932;-82
2022/06/26 01:36:19;;;;;;;9.30;7.87;;;;;;;18.87;66.92;100689.18;1647176;86;26105;-82
2022/06/26 01:38:47;;;;;;;9.03;7.65;;;;;;;18.83;66.87;100696.15;1656255;85;26086;-82
2022/06/26 01:41:14;;;;;;;9.28;8.25;;;;;;;18.79;66.87;100693.63;1657514;85;27440;-82
2022/06/26 01:43:42;;;;;;;13.25;8.58;;;;;;;18.73;66.95;100694.58;1673024;85;25849;-82
2022/06/26 01:46:11;;;;;;;12.85;8.40;;;;;;;18.70;67.10;100696.39;1655707;85;25337;-82
2022/06/26 01:48:39;;;;;;;11.30;8.25;;;;;;;18.67;67.28;100695.50;1660178;85;26084;-81
2022/06/26 01:51:08;;;;;;;9.53;8.50;;;;;;;18.64;67.46;100706.02;1653676;85;25605;-82
2022/06/26 01:53:37;;;;;;;11.75;9.33;;;;;;;18.62;67.81;100710.33;1670474;83;28355;-82
2022/06/26 01:56:05;;;;;;;10.13;8.33;;;;;;;18.56;67.92;100711.28;1672942;83;25824;-82
2022/06/26 01:58:36;;;;;;;9.10;8.18;;;;;;;18.51;68.12;100711.16;1670587;85;26128;-82
2022/06/26 02:01:05;;;;;;;10.03;8.75;;;;;;;18.48;68.40;100705.38;1658155;85;26675;-82
2022/06/26 02:03:32;;;;;;;10.28;8.18;;;;;;;18.46;68.46;100713.73;1663024;84;26376;-81
2022/06/26 02:05:58;;;;;;;10.65;9.00;;;;;;;18.42;68.84;100713.36;1679154;84;28270;-82
2022/06/26 02:08:25;;;;;;;10.65;8.33;;;;;;;18.36;68.94;100712.95;1671023;85;26552;-82
2022/06/26 02:13:37;;;;;;;8.38;7.42;;;;;;;18.27;69.23;100711.63;1665595;85;26102;-82
2022/06/26 02:16:13;;;;;;;11.03;7.83;;;;;;;18.21;69.44;100715.80;1665968;85;25791;-82
2022/06/26 02:18:44;;;;;;;8.23;7.42;;;;;;;18.15;69.33;100717.58;1653378;85;27600;-82
2022/06/26 02:21:15;;;;;;;10.72;7.72;;;;;;;18.10;69.49;100716.61;1683399;85;25820;-82
2022/06/26 02:23:44;;;;;;;8.58;7.12;;;;;;;18.02;69.60;100719.14;1672247;83;25984;-82
2022/06/26 02:26:12;;;;;;;9.58;8.00;;;;;;;17.97;69.98;100719.00;1686058;83;26110;-82
2022/06/26 02:28:40;;;;;;;8.93;8.10;;;;;;;17.93;70.32;100721.87;1690017;83;25867;-82
2022/06/26 02:31:07;;;;;;;10.40;9.30;;;;;;;17.90;70.43;100723.68;1694468;83;27448;-82
2022/06/26 02:33:38;;;;;;;11.73;8.23;;;;;;;17.88;70.28;100724.44;1684868;83;25735;-81
2022/06/26 02:36:04;;;;;;;8.88;7.45;;;;;;;17.86;70.41;100723.02;1672289;82;25869;-81
2022/06/26 02:38:32;;;;;;;9.90;7.90;;;;;;;17.84;70.47;100726.48;1653670;85;26082;-81
2022/06/26 02:41:00;;;;;;;9.00;8.10;;;;;;;17.84;70.75;100731.91;1666742;85;25899;-82
2022/06/26 02:43:27;;;;;;;12.28;8.23;;;;;;;17.83;70.90;100729.75;1677271;84;27451;-81
2022/06/26 02:45:55;;;;;;;11.57;8.63;;;;;;;17.83;71.15;100729.75;1675171;85;26474;-80
2022/06/26 02:48:23;;;;;;;11.60;8.25;;;;;;;17.82;71.24;100733.50;1679083;84;25955;-82
2022/06/26 02:50:49;;;;;;;9.43;8.40;;;;;;;17.83;71.36;100730.27;1646749;85;26068;-81
2022/06/26 02:53:16;;;;;;;10.00;8.30;;;;;;;17.80;71.57;100735.62;1662896;83;25843;-81
2022/06/26 02:55:43;;;;;;;10.75;9.00;;;;;;;17.79;71.59;100737.21;1653066;85;27469;-82
2022/06/26 02:58:12;;;;;;;9.53;8.58;;;;;;;17.78;71.60;100739.61;1666449;85;26011;-82
2022/06/26 03:00:40;;;;;;;12.50;8.40;;;;;;;17.77;71.77;100738.77;1662325;84;25784;-80
2022/06/26 03:03:07;;;;;;;12.15;8.80;;;;;;;17.76;71.79;100742.55;1677578;85;26217;-81
2022/06/26 03:05:34;;;;;;;9.50;8.25;;;;;;;17.78;71.88;100742.31;1665104;84;26378;-81
2022/06/26 03:08:01;;;;;;;9.80;8.85;;;;;;;17.75;71.92;100741.44;1667384;85;28373;-81
2022/06/26 03:10:27;;;;;;;13.72;9.40;;;;;;;17.74;72.09;100743.31;1664011;84;25902;-82
2022/06/26 03:12:54;;;;;;;10.40;9.35;;;;;;;17.76;72.44;100746.63;1653135;85;26602;-81
2022/06/26 03:15:21;;;;;;;13.22;9.30;;;;;;;17.77;72.40;100750.97;1682017;83;26491;-81
2022/06/26 03:17:48;;;;;;;13.65;9.38;;;;;;;17.80;72.66;100746.45;1644017;86;25949;-80
2022/06/26 03:20:19;;;;;;;9.83;8.88;;;;;;;17.87;72.74;100751.78;1664265;85;28340;-82
2022/06/26 03:22:47;;;;;;;11.20;8.93;;;;;;;17.90;72.62;100749.42;1665506;85;34947;-82
2022/06/26 03:25:14;;;;;;;10.48;9.33;;;;;;;17.97;72.77;100751.52;1656375;85;25800;-82
2022/06/26 03:27:41;;;;;;;13.60;8.58;;;;;;;18.01;72.75;100754.58;1670237;85;26126;-83
2022/06/26 03:30:11;;;;;;;8.38;7.62;;;;;;;18.04;72.78;100749.55;1681976;85;25944;-83
2022/06/26 03:32:38;;;;;;;12.93;8.43;;;;;;;18.12;72.77;100757.86;1664528;85;28466;-82
2022/06/26 03:35:07;;;;;;;10.18;9.20;;;;;;;18.21;72.69;100762.73;1669226;83;26573;-83
2022/06/26 03:37:34;;;;;;;15.65;8.90;;;;;;;18.30;72.66;100761.34;1661162;85;25866;-80
2022/06/26 03:40:01;;;;;;;10.48;9.38;;;;;;;18.40;72.72;100768.37;1682260;85;26510;-80
2022/06/26 03:42:28;;;;;;;10.28;9.28;;;;;;;18.48;72.74;100767.77;1681592;85;25873;-81
2022/06/26 03:44:55;;;;;;;11.30;8.68;;;;;;;18.55;72.71;100770.66;1658232;85;28236;-80
2022/06/26 03:47:21;;;;;;;10.75;8.28;;;;;;;18.62;72.71;100776.80;1666546;85;25285;-81
2022/06/26 03:49:52;;;;;;;10.38;9.23;;;;;;;18.68;72.80;100775.02;1661106;84;25877;-81
2022/06/26 03:52:24;;;;;;;9.48;8.58;;;;;;;18.72;72.91;100772.97;1681333;84;25521;-81
2022/06/26 03:54:53;;;;;;;9.73;8.73;;;;;;;18.76;72.66;100774.66;1656209;84;25939;-81
2022/06/26 03:57:21;;;;;;;9.90;8.90;;;;;;;18.81;72.78;100781.58;1673538;83;27479;-81
2022/06/26 03:59:49;;;;;;;10.18;8.85;;;;;;;18.87;72.98;100775.20;1676617;84;25790;-81
2022/06/26 04:02:17;;;;;;;10.03;9.03;;;;;;;18.93;73.12;100768.82;1672975;84;25834;-82
2022/06/26 04:04:46;;;;;;;10.05;8.50;;;;;;;19.01;73.28;100777.98;1676745;84;26186;-81
2022/06/26 04:07:12;;;;;;;11.33;8.48;;;;;;;19.10;73.14;100776.54;1674898;84;25888;-82
2022/06/26 04:09:41;;;;;;;11.20;9.00;;;;;;;19.19;73.11;100774.59;1674830;84;28272;-82
2022/06/26 04:12:08;;;;;;;12.30;8.65;;;;;;;19.29;73.21;100766.37;1678329;84;26004;-82
2022/06/26 04:14:37;;;;;;;14.25;8.65;;;;;;;19.43;73.08;100773.21;1675415;83;26464;-82
2022/06/26 04:17:04;;;;;;;11.28;8.70;;;;;;;19.53;73.14;100769.33;1673896;83;26874;-82
2022/06/26 04:19:30;;;;;;;10.03;9.03;;;;;;;19.61;73.16;100771.14;1672688;84;25933;-82
2022/06/26 04:21:59;;;;;;;9.78;8.88;;;;;;;19.72;73.05;100777.07;1672426;84;27467;-82
2022/06/26 04:24:26;;;;;;;9.18;8.38;;;;;;;19.83;72.97;100779.45;1677934;84;25819;-82
2022/06/26 04:26:52;;;;;;;9.23;8.03;;;;;;;19.93;72.87;100775.59;1681490;84;25949;-81
2022/06/26 04:29:19;;;;;;;11.00;9.10;;;;;;;20.04;73.00;100780.12;1672397;84;26068;-81
2022/06/26 04:31:46;;;;;;;11.95;8.60;;;;;;;20.13;72.18;100779.19;1679689;84;25843;-81
2022/06/26 04:34:14;;;;;;;10.88;9.03;;;;;;;20.24;71.83;100786.49;1674816;83;27446;-82
2022/06/26 04:36:41;;;;;;;10.68;9.35;;;;;;;20.32;71.15;100786.09;1674026;84;25780;-82
2022/06/26 04:39:09;;;;;;;12.23;9.03;;;;;;;20.39;70.74;100786.76;1676547;84;25892;-82
2022/06/26 04:41:35;;;;;;;12.03;8.18;;;;;;;20.49;70.54;100786.39;1670862;84;26807;-81
2022/06/26 04:44:12;;;;;;;10.08;8.50;;;;;;;20.61;70.51;100783.08;1676153;84;25710;-82
2022/06/26 04:46:41;;;;;;;11.85;8.68;;;;;;;20.71;69.99;100792.75;1659849;85;27473;-82
2022/06/26 04:49:08;;;;;;;11.78;9.35;;;;;;;20.78;69.03;100793.39;1676717;84;25862;-82
2022/06/26 04:51:36;;;;;;;9.83;8.73;;;;;;;20.88;68.91;100790.53;1678296;84;25675;-82
2022/06/26 04:54:07;;;;;;;9.90;8.90;;;;;;;20.99;68.77;100793.17;1662765;83;26648;-82
2022/06/26 04:56:36;;;;;;;12.88;8.00;;;;;;;21.10;68.44;100798.27;1678215;84;25928;-82
2022/06/26 04:59:05;;;;;;;11.70;8.43;;;;;;;21.20;68.25;100801.95;1677355;84;28271;-82
2022/06/26 05:01:32;;;;;;;8.95;7.90;;;;;;;21.32;67.86;100801.29;1678161;84;26051;-82
2022/06/26 05:04:09;;;;;;;9.90;7.90;;;;;;;21.42;67.78;100799.25;1645241;86;26287;-82
2022/06/26 05:06:43;;;;;;;10.68;7.37;;;;;;;21.55;67.87;100808.42;1654578;84;26261;-82
2022/06/26 05:09:12;;;;;;;9.75;7.35;;;;;;;21.67;67.52;100807.73;1678818;84;26334;-82
2022/06/26 05:11:40;;;;;;;8.63;7.40;;;;;;;21.78;67.16;100810.05;1676024;84;27452;-82
2022/06/26 05:14:07;;;;;;;9.98;6.87;;;;;;;21.88;67.04;100813.75;1670325;83;25826;-82
2022/06/26 05:16:35;;;;;;;7.97;6.83;;;;;;;21.98;66.89;100813.05;1663491;85;25712;-81
2022/06/26 05:19:03;;;;;;;8.93;7.22;;;;;;;22.06;66.05;100813.41;1665701;85;26166;-82
2022/06/26 05:21:30;;;;;;;8.90;7.00;;;;;;;22.12;66.06;100814.28;1681930;82;25950;-81
2022/06/26 05:23:56;;;;;;;9.38;7.30;;;;;;;22.19;65.37;100818.47;1672579;83;27444;-82
2022/06/26 05:26:23;;;;;;;10.18;7.37;;;;;;;22.28;64.94;100817.99;1670490;84;25796;-80
2022/06/26 05:28:52;;;;;;;9.88;6.60;;;;;;;22.34;64.98;100817.78;1663690;85;25261;-81
2022/06/26 05:31:20;;;;;;;9.05;6.90;;;;;;;22.43;65.10;100820.33;1681177;85;26079;-80
2022/06/26 05:33:48;;;;;;;9.45;6.30;;;;;;;22.54;65.43;100825.34;1675782;85;26407;-80
2022/06/26 05:36:15;;;;;;;7.80;6.33;;;;;;;22.61;64.94;100829.52;1667355;83;28330;-81
2022/06/26 05:38:43;;;;;;;8.58;6.62;;;;;;;22.67;65.07;100825.74;1653205;85;26006;-80
2022/06/26 05:41:10;;;;;;;7.28;6.45;;;;;;;22.77;64.64;100827.21;1664252;85;26602;-80
2022/06/26 05:43:38;;;;;;;10.45;6.45;;;;;;;22.86;64.31;100830.28;1659174;85;26686;-80
2022/06/26 05:46:06;;;;;;;8.43;6.03;;;;;;;22.93;64.00;100837.16;1676381;83;25840;-81
2022/06/26 05:48:34;;;;;;;6.95;5.90;;;;;;;22.98;63.93;100838.57;1661273;84;28096;-79
2022/06/26 05:51:11;;;;;;;6.80;5.92;;;;;;;23.07;63.95;100840.80;1666390;85;25970;-81
2022/06/26 05:53:39;;;;;;;9.58;6.72;;;;;;;23.18;63.81;100841.16;1669369;79;26111;-81
2022/06/26 05:56:08;;;;;;;7.70;6.20;;;;;;;23.28;63.13;100842.05;1656945;83;26960;-80
2022/06/26 05:58:38;;;;;;;7.58;5.92;;;;;;;23.36;63.10;100840.73;1673891;84;26020;-80
2022/06/26 06:01:25;;;;;;;7.05;6.00;;;;;;;23.44;62.17;100843.80;1647308;86;27476;-80
2022/06/26 06:03:53;;;;;;;8.10;5.72;;;;;;;23.54;62.06;100848.50;1648799;84;25728;-82
2022/06/26 06:06:21;;;;;;;6.12;5.53;;;;;;;23.62;61.45;100843.35;1669639;84;25950;-81
2022/06/26 06:08:48;;;;;;;6.47;5.85;;;;;;;23.72;61.35;100848.86;1675413;85;26285;-81
2022/06/26 06:11:15;;;;;;;11.03;6.58;;;;;;;23.81;61.07;100840.13;1666384;84;25714;-80
2022/06/26 06:13:41;;;;;;;9.40;5.42;;;;;;;23.91;61.12;100847.83;1664889;85;27444;-80
2022/06/26 06:16:07;;;;;;;13.50;6.12;;;;;;;24.00;60.75;100850.33;1656590;85;25917;-80
2022/06/26 06:18:34;;;;;;;10.23;5.67;;;;;;;24.10;60.11;100846.28;1663543;85;25782;-81
2022/06/26 06:21:01;;;;;;;6.40;4.97;;;;;;;24.19;60.57;100850.68;1666718;85;26086;-80
2022/06/26 06:23:28;;;;;;;8.40;5.72;;;;;;;24.30;60.14;100848.24;1677631;84;25738;-80
2022/06/26 06:25:54;;;;;;;5.58;4.92;;;;;;;24.39;59.69;100859.77;1673318;83;27463;-80
2022/06/26 06:28:21;;;;;;;10.15;5.62;;;;;;;24.47;58.95;100859.23;1663275;85;25841;-80
2022/06/26 06:30:47;;;;;;;7.00;5.00;;;;;;;24.53;59.20;100861.98;1671706;84;25374;-80
2022/06/26 06:33:16;;;;;;;6.80;4.80;;;;;;;24.60;58.69;100859.24;1681877;83;26050;-80
2022/06/26 06:35:44;;;;;;;6.03;4.58;;;;;;;24.67;58.56;100860.34;1668281;84;25894;-80
2022/06/26 06:38:11;;;;;;;8.35;4.45;;;;;;;24.78;58.54;100864.77;1681183;83;28355;-80
2022/06/26 06:40:38;;;;;;;8.78;5.35;;;;;;;24.87;58.71;100872.73;1691129;83;25999;-80
2022/06/26 06:43:10;;;;;;;6.28;5.30;;;;;;;24.97;58.32;100873.54;1684724;84;26598;-79
2022/06/26 06:45:47;;;;;;;6.83;4.87;;;;;;;25.04;57.95;100878.75;1687539;83;26103;-80
2022/06/26 06:48:14;;;;;;;5.78;5.15;;;;;;;25.09;58.04;100877.35;1692613;83;25766;-80
2022/06/26 06:50:40;;;;;;;5.00;4.50;;;;;;;25.18;58.02;100881.19;1683989;83;27440;-80
2022/06/26 06:53:08;;;;;;;6.97;4.62;;;;;;;25.27;57.49;100880.91;1673363;82;25807;-80
2022/06/26 06:55:34;;;;;;;7.15;5.17;;;;;;;25.37;57.62;100875.39;1642140;85;26474;-80
2022/06/26 06:58:01;;;;;;;6.87;4.70;;;;;;;25.46;56.94;100872.40;1651632;86;26865;-80
2022/06/26 07:00:27;;;;;;;9.28;4.97;;;;;;;25.54;55.45;100873.73;1665269;83;25946;-80
2022/06/26 07:03:02;;;;;;;5.78;4.10;;;;;;;25.58;55.11;100875.64;1684465;83;27439;-80
2022/06/26 07:05:30;;;;;;;8.58;4.35;;;;;;;25.64;55.58;100876.47;1686407;83;26271;-80
2022/06/26 07:07:57;;;;;;;5.87;4.08;;;;;;;25.73;55.07;100878.34;1674380;84;26381;-80
2022/06/26 07:10:24;;;;;;;5.95;4.60;;;;;;;25.81;55.45;100879.12;1676458;83;26293;-80
2022/06/26 07:12:56;;;;;;;11.05;4.50;;;;;;;25.87;54.95;100884.06;1683656;83;26003;-80
2022/06/26 07:15:23;;;;;;;6.28;4.20;;;;;;;25.97;54.94;100880.72;1681299;83;28306;-81
2022/06/26 07:17:49;;;;;;;6.42;4.37;;;;;;;26.03;54.48;100883.70;1673074;84;26381;-80
2022/06/26 07:20:17;;;;;;;11.35;4.40;;;;;;;26.13;55.11;100884.80;1691261;83;25727;-79
2022/06/26 07:22:44;;;;;;;9.05;4.72;;;;;;;26.20;54.47;100886.66;1689368;83;26099;-80
2022/06/26 07:25:12;;;;;;;13.00;4.47;;;;;;;26.25;54.01;100881.16;1673443;83;25802;-80
2022/06/26 07:27:47;;;;;;;7.58;4.10;;;;;;;26.33;54.12;100878.63;1693077;83;28810;-80
2022/06/26 07:30:15;;;;;;;10.13;4.25;;;;;;;26.41;53.66;100880.77;1680784;83;25828;-80
2022/06/26 07:32:49;;;;;;;13.18;3.80;;;;;;;26.49;52.74;100880.19;1702292;83;25837;-80
2022/06/26 07:35:15;;;;;;;15.45;4.17;;;;;;;26.56;51.87;100877.13;1692433;82;26850;-80
2022/06/26 07:37:42;;;;;;;9.45;3.80;;;;;;;26.63;52.17;100880.36;1679655;84;25900;-80
2022/06/26 07:40:10;;;;;;;12.73;3.98;;;;;;;26.68;51.79;100885.28;1673742;85;27950;-80
2022/06/26 07:42:38;;;;;;;10.32;4.20;;;;;;;26.77;51.56;100882.77;1685672;83;25306;-80
2022/06/26 07:45:06;;;;;;;10.72;4.05;;;;;;;26.85;51.83;100885.44;1666339;83;25783;-79
2022/06/26 07:47:34;;;;;;;5.40;3.20;;;;;;;26.92;51.84;100890.90;1692723;82;26143;-80
2022/06/26 07:50:03;;;;;;;8.88;2.98;;;;;;;27.00;50.44;100885.31;1672712;85;26006;-80
2022/06/26 07:52:29;;;;;;;11.90;2.95;;;;;;;27.07;50.16;100886.64;1678886;84;27441;-80
2022/06/26 07:54:55;;;;;;;5.28;2.77;;;;;;;27.14;49.65;100882.16;1682253;79;25738;-80
2022/06/26 07:57:22;;;;;;;5.95;2.60;;;;;;;27.19;48.24;100880.74;1679446;83;25900;-80
2022/06/26 07:59:48;;;;;;;4.95;2.62;;;;;;;27.21;47.83;100877.14;1683166;83;26133;-80
2022/06/26 08:02:15;;;;;;;8.85;2.45;;;;;;;27.26;48.36;100879.30;1693352;83;25904;-80
2022/06/26 08:04:41;;;;;;;6.92;2.35;;;;;;;27.32;47.60;100879.52;1684123;83;28248;-80
2022/06/26 08:07:07;;;;;;;5.55;2.40;;;;;;;27.44;46.69;100884.09;1677523;83;25853;-80
2022/06/26 08:09:34;;;;;;;3.72;2.25;;;;;;;27.49;44.74;100888.17;1652769;85;25870;-80
2022/06/26 08:12:00;;;;;;;2.52;2.25;;;;;;;27.49;44.99;100881.30;1676228;84;27022;-80
2022/06/26 08:14:26;;;;;;;6.17;2.08;;;;;;;27.55;45.61;100883.97;1675494;82;25995;-80
2022/06/26 08:16:53;;;;;;;4.03;2.33;;;;;;;27.57;45.25;100881.19;1682974;84;27454;-80
2022/06/26 08:19:20;;;;;;;3.80;2.10;;;;;;;27.62;44.70;100881.15;1662481;84;26480;-80
2022/06/26 08:22:01;;;;;;;3.55;2.50;;;;;;;27.65;44.94;100880.55;1679608;85;25794;-80
2022/06/26 08:24:28;;;;;;;3.47;2.35;;;;;;;27.71;44.61;100881.32;1671381;82;26081;-80
2022/06/26 08:26:55;;;;;;;2.60;2.30;;;;;;;27.78;44.57;100884.55;1679058;85;26590;-80
2022/06/26 08:29:22;;;;;;;2.65;2.42;;;;;;;27.82;44.36;100885.59;1665577;85;28227;-80
2022/06/26 08:31:50;;;;;;;3.08;2.60;;;;;;;27.89;43.97;100888.80;1675466;85;25345;-80
2022/06/26 08:34:17;;;;;;;4.33;2.25;;;;;;;27.93;43.59;100880.23;1662587;85;25336;-79
2022/06/26 08:36:44;;;;;;;3.58;2.70;;;;;;;27.95;43.88;100889.81;1668087;84;26056;-79
2022/06/26 08:39:10;;;;;;;2.58;2.37;;;;;;;28.04;44.11;100888.09;1658709;84;25365;-79
2022/06/26 08:41:42;;;;;;;3.45;2.80;;;;;;;28.12;43.07;100888.00;1659701;85;27458;-79
2022/06/26 08:44:10;;;;;;;8.53;2.50;;;;;;;28.15;42.39;100885.47;1678098;83;25789;-80
2022/06/26 08:46:40;;;;;;;3.65;2.70;;;;;;;28.17;41.93;100886.53;1660871;85;25964;-79
2022/06/26 08:49:17;;;;;;;5.10;2.60;;;;;;;28.21;43.17;100893.09;1677050;84;26220;-79
2022/06/26 08:51:48;;;;;;;3.12;2.55;;;;;;;28.28;44.08;100887.22;1661091;85;26254;-80
2022/06/26 08:54:16;;;;;;;4.25;2.30;;;;;;;28.36;43.58;100887.37;1664495;82;27528;-80
2022/06/26 08:56:49;;;;;;;2.70;2.50;;;;;;;28.43;43.10;100891.13;1661248;83;26374;-79
2022/06/26 08:59:18;;;;;;;4.92;2.60;;;;;;;28.41;41.41;100896.12;1689670;83;25766;-79
2022/06/26 09:01:45;;;;;;;3.85;2.60;;;;;;;28.40;42.37;100894.50;1678256;84;26851;-78
2022/06/26 09:04:12;;;;;;;4.15;2.65;;;;;;;28.44;42.43;100892.23;1678307;84;25992;-78
2022/06/26 09:06:41;;;;;;;3.77;2.52;;;;;;;28.49;42.29;100888.55;1675362;84;27513;-80
2022/06/26 09:09:24;;;;;;;2.58;2.37;;;;;;;28.53;42.16;100891.80;1673746;84;25884;-80
2022/06/26 09:12:00;;;;;;;4.83;2.67;;;;;;;28.60;42.40;100885.39;1666893;85;25774;-81
2022/06/26 09:14:29;;;;;;;6.00;2.50;;;;;;;28.63;40.57;100881.22;1666620;84;26082;-80
2022/06/26 09:16:58;;;;;;;5.87;2.58;;;;;;;28.64;41.12;100876.78;1679528;84;26200;-80
2022/06/26 09:19:29;;;;;;;3.37;2.27;;;;;;;28.68;40.29;100888.02;1671096;83;28338;-79
2022/06/26 09:22:10;;;;;;;4.75;2.30;;;;;;;28.69;41.07;100886.36;1681064;85;25290;-80
2022/06/26 09:24:39;;;;;;;3.08;2.33;;;;;;;28.73;41.19;100885.19;1670261;84;25320;-79
2022/06/26 09:27:15;;;;;;;4.47;2.65;;;;;;;28.79;40.62;100889.50;1680774;84;26073;-80
2022/06/26 09:29:49;;;;;;;3.77;2.33;;;;;;;28.79;40.43;100883.98;1675015;85;25965;-78
2022/06/26 09:32:17;;;;;;;3.83;2.15;;;;;;;28.78;40.50;100887.87;1653610;85;27534;-80
2022/06/26 09:34:50;;;;;;;3.72;2.60;;;;;;;28.78;39.97;100883.19;1652602;85;25751;-80
2022/06/26 09:37:19;;;;;;;6.60;2.92;;;;;;;28.80;39.98;100885.64;1636048;86;26055;-80
2022/06/26 09:39:46;;;;;;;2.95;2.70;;;;;;;28.81;40.31;100878.98;1673470;85;26240;-80
2022/06/26 09:42:18;;;;;;;3.47;2.50;;;;;;;28.87;40.41;100879.19;1671957;85;25873;-80
2022/06/26 09:44:54;;;;;;;3.25;2.25;;;;;;;28.93;40.02;100880.73;1682385;83;27610;-79
2022/06/26 09:47:36;;;;;;;2.33;2.20;;;;;;;28.94;39.32;100883.18;1669346;85;25800;-80
2022/06/26 09:50:07;;;;;;;3.35;2.10;;;;;;;29.01;40.03;100886.94;1656969;83;25878;-80
2022/06/26 09:52:34;;;;;;;4.20;2.60;;;;;;;29.05;40.47;100882.45;1675608;85;26254;-80
2022/06/26 09:55:05;;;;;;;4.70;2.22;;;;;;;29.10;39.04;100876.85;1652682;84;25887;-80
2022/06/26 09:57:32;;;;;;;3.40;2.37;;;;;;;29.13;39.68;100878.19;1665960;85;28026;-80
2022/06/26 09:59:59;;;;;;;2.55;2.35;;;;;;;29.21;40.30;100888.55;1665061;85;26450;-80
2022/06/26 10:08:03;;;;;;;5.62;1.98;;;;;;;29.34;39.74;100878.11;1668861;85;25379;-80
2022/06/26 10:10:32;;;;;;;4.62;2.20;;;;;;;29.39;39.24;100876.05;1685368;83;27456;-81
2022/06/26 10:13:07;;;;;;;2.67;2.45;;;;;;;29.39;39.13;100876.05;1688699;83;25920;-80
2022/06/26 10:16:06;;;;;;;4.58;2.25;;;;;;;29.41;38.53;100875.19;1673260;83;26505;-80
2022/06/26 10:19:01;;;;;;;3.02;2.42;;;;;;;29.41;39.26;100877.95;1671887;85;26124;-80
2022/06/26 10:21:27;;;;;;;2.80;2.15;;;;;;;29.49;38.97;100866.78;1671814;85;25922;-80
2022/06/26 10:24:03;;;;;;;6.00;2.20;;;;;;;29.53;38.37;100870.56;1656856;85;27440;-80
2022/06/26 10:26:29;;;;;;;3.05;2.30;;;;;;;29.60;38.06;100867.63;1653319;83;25697;-80
2022/06/26 10:29:09;;;;;;;3.80;2.15;;;;;;;29.63;38.18;100868.42;1665354;85;25864;-80
2022/06/26 10:31:48;;;;;;;3.62;2.47;;;;;;;29.69;38.29;100868.56;1665502;85;26122;-80
2022/06/26 10:34:20;;;;;;;5.50;2.62;;;;;;;29.72;38.52;100875.42;1653456;85;25364;-80
2022/06/26 10:37:15;;;;;;;5.78;2.70;;;;;;;29.70;38.06;100866.63;1665539;85;28763;-79
2022/06/26 10:39:52;;;;;;;2.90;2.25;;;;;;;29.66;38.02;100869.16;1664027;85;25939;-79
2022/06/26 10:45:30;;;;;;;2.33;2.12;;;;;;;29.58;38.52;100862.16;1677637;83;26130;-79
2022/06/26 10:48:04;;;;;;;2.30;2.00;;;;;;;29.62;38.65;100858.48;1663243;85;25822;-79
2022/06/26 10:50:35;;;;;;;3.50;1.90;;;;;;;29.76;38.59;100859.08;1659703;82;28318;-79
2022/06/26 10:53:19;;;;;;;3.42;2.10;;;;;;;29.83;38.14;100858.11;1683380;85;25773;-80
2022/06/26 10:56:02;;;;;;;2.50;2.17;;;;;;;29.84;37.03;100857.80;1682888;83;26109;-80
2022/06/26 10:58:32;;;;;;;2.67;1.70;;;;;;;29.80;37.58;100860.09;1653076;85;26612;-79
2022/06/26 11:01:03;;;;;;;3.42;2.15;;;;;;;29.85;38.04;100863.59;1675007;84;25834;-79
2022/06/26 11:03:30;;;;;;;;;;;;;;;29.95;37.78;100866.12;1678527;84;27446;-81
2022/06/26 11:06:04;;;;;;;2.40;1.90;;;;;;;30.02;36.13;100857.42;1677953;83;26686;-80
2022/06/26 11:08:41;;;;;;;6.17;2.12;;;;;;;29.99;36.95;100863.00;1681379;84;26012;-81
2022/06/26 11:11:17;;;;;;;2.50;2.00;;;;;;;30.02;36.75;100863.77;1679738;84;26075;-81
2022/06/26 11:13:59;;;;;;;5.72;1.75;;;;;;;30.07;36.62;100862.26;1667117;84;25759;-81
2022/06/26 11:16:43;;;;;;;1.90;1.80;;;;;;;30.13;36.35;100861.02;1675654;84;27941;-81
2022/06/26 11:19:26;;;;;;;4.15;2.20;;;;;;;30.20;36.29;100853.13;1673065;84;26385;-81
2022/06/26 11:22:11;;;;;;;4.28;2.35;;;;;;;30.20;37.60;100853.13;1674083;84;26492;-81
2022/06/26 11:24:51;;;;;;;5.95;2.87;;;;;;;30.29;35.47;100851.83;1679797;83;26132;-81
2022/06/26 11:27:24;;;;;;;5.37;2.17;;;;;;;30.31;35.67;100854.56;1659931;85;25974;-81
2022/06/26 11:29:52;;;;;;;3.95;2.02;;;;;;;30.34;35.87;100854.52;1682917;84;27464;-78
2022/06/26 11:32:25;;;;;;;6.45;1.92;;;;;;;30.32;35.70;100853.45;1664581;85;25851;-78
2022/06/26 11:34:55;;;;;;;3.08;1.90;;;;;;;30.29;35.67;100847.13;1674984;83;26193;-78
2022/06/26 11:37:36;;;;;;;2.92;2.00;;;;;;;30.36;35.29;100845.34;1664275;85;26065;-78
2022/06/26 11:40:13;;;;;;;7.85;2.33;;;;;;;30.44;34.84;100840.44;1679350;82;25913;-79
2022/06/26 11:42:40;;;;;;;6.20;2.37;;;;;;;30.51;34.77;100843.59;1673334;83;27586;-78
2022/06/26 11:45:08;;;;;;;3.65;2.10;;;;;;;30.54;35.71;100843.55;1681216;83;25954;-78